Time;durP1;ratioP1;P1;durP2;ratioP2;P2;SDS_P1;SDS_P2;PMS_P1;PMS_P2;Temp;Humidity;BMP_temperature;BMP_pressure;BME280_temperature;BME280_humidity;BME280_pressure;Samples;Min_cycle;Max_cycle;Signal;HPM_P1;HPM_P2
2023/05/22 00:00:09;;;;;;;15.83;10.00;;;;;;;17.60;81.52;99688.44;5021820;28;21019;-77
2023/05/22 00:02:43;;;;;;;17.10;11.02;;;;;;;17.60;81.33;99688.44;5022271;28;20385;-76
2023/05/22 00:05:10;;;;;;;19.05;11.18;;;;;;;17.60;81.61;99699.47;5022844;28;20029;-77
2023/05/22 00:07:36;;;;;;;22.40;12.10;;;;;;;17.59;82.06;99697.81;5022685;28;20380;-77
2023/05/22 00:10:01;;;;;;;22.30;11.85;;;;;;;17.61;81.92;99690.06;5021805;28;20039;-76
2023/05/22 00:12:26;;;;;;;15.55;10.90;;;;;;;17.60;82.44;99693.94;5022491;28;20030;-76
2023/05/22 00:14:52;;;;;;;20.48;11.00;;;;;;;17.61;82.42;99690.06;5021770;28;20041;-76
2023/05/22 00:17:17;;;;;;;16.37;10.80;;;;;;;17.58;82.21;99690.69;5022995;28;20042;-76
2023/05/22 00:19:43;;;;;;;20.27;12.18;;;;;;;17.58;82.79;99687.13;5022038;28;20254;-77
2023/05/22 00:22:08;;;;;;;14.48;9.70;;;;;;;17.59;82.54;99689.56;5022898;28;20514;-76
2023/05/22 00:24:34;;;;;;;18.20;12.25;;;;;;;17.56;83.04;99687.44;5022463;28;20026;-76
2023/05/22 00:26:59;;;;;;;20.02;11.80;;;;;;;17.56;82.73;99692.94;5022318;28;20037;-77
2023/05/22 00:29:24;;;;;;;30.90;12.15;;;;;;;17.55;83.04;99685.00;5021771;28;20037;-76
2023/05/22 00:31:50;;;;;;;20.50;11.37;;;;;;;17.60;82.56;99691.19;5022321;28;20100;-77
2023/05/22 00:34:15;;;;;;;18.83;10.30;;;;;;;17.55;82.05;99677.56;5022848;28;20115;-77
2023/05/22 00:36:40;;;;;;;16.20;10.77;;;;;;;17.54;82.59;99672.34;5022473;28;20251;-77
2023/05/22 00:39:06;;;;;;;20.20;11.55;;;;;;;17.55;82.65;99668.47;5022361;28;20881;-76
2023/05/22 00:41:34;;;;;;;22.83;11.98;;;;;;;17.52;82.58;99674.59;5022649;28;20036;-77
2023/05/22 00:44:01;;;;;;;17.15;10.80;;;;;;;17.49;82.83;99668.56;5022535;28;20041;-76
2023/05/22 00:46:26;;;;;;;19.52;12.13;;;;;;;17.47;82.66;99668.06;5022599;28;20041;-76
2023/05/22 00:48:52;;;;;;;20.23;11.15;;;;;;;17.38;82.91;99665.28;5021488;28;20029;-76
2023/05/22 00:51:23;;;;;;;19.15;10.88;;;;;;;17.38;82.69;99659.78;5022148;28;20132;-76
2023/05/22 00:53:49;;;;;;;19.88;10.65;;;;;;;17.36;82.74;99662.03;5021943;28;20091;-76
2023/05/22 00:56:15;;;;;;;19.23;11.95;;;;;;;17.35;82.58;99662.34;5021805;28;20033;-76
2023/05/22 00:58:41;;;;;;;21.45;12.25;;;;;;;17.22;83.39;99667.59;5021634;28;20064;-76
2023/05/22 01:01:08;;;;;;;19.90;11.90;;;;;;;17.16;83.61;99663.34;5021999;28;20029;-76
2023/05/22 01:03:36;;;;;;;16.25;10.25;;;;;;;17.17;83.57;99664.16;5021694;28;20044;-77
2023/05/22 01:06:02;;;;;;;20.20;12.35;;;;;;;17.17;83.49;99664.16;5021908;28;20394;-76
2023/05/22 01:08:27;;;;;;;19.25;12.50;;;;;;;17.13;83.56;99670.28;5021619;28;20046;-76
2023/05/22 01:11:07;;;;;;;24.10;13.37;;;;;;;17.11;83.46;99655.97;5021579;28;20112;-77
2023/05/22 01:13:50;;;;;;;20.90;11.60;;;;;;;17.11;83.16;99660.66;5022581;28;20263;-76
2023/05/22 01:16:28;;;;;;;21.52;12.00;;;;;;;17.03;83.73;99664.97;5025428;28;20053;-76
2023/05/22 01:19:49;;;;;;;18.83;11.98;;;;;;;17.02;83.05;99660.59;5024838;28;20041;-76
2023/05/22 01:23:02;;;;;;;20.38;11.98;;;;;;;16.95;83.22;99662.94;4983107;28;20172;-76
2023/05/22 01:25:48;;;;;;;23.30;12.48;;;;;;;16.93;83.51;99660.50;5025264;28;20034;-77
2023/05/22 01:28:39;;;;;;;19.25;11.02;;;;;;;16.87;83.77;99656.25;5024820;28;20044;-76
2023/05/22 01:31:10;;;;;;;18.77;11.60;;;;;;;16.87;84.24;99668.09;5025199;28;20128;-76
2023/05/22 01:33:47;;;;;;;20.23;12.48;;;;;;;16.92;83.56;99658.91;5025156;28;20030;-76
2023/05/22 01:36:18;;;;;;;20.60;11.35;;;;;;;16.94;83.52;99655.81;5024961;28;20040;-76
2023/05/22 01:38:44;;;;;;;21.70;12.00;;;;;;;16.98;83.57;99660.41;5024403;28;20491;-76
2023/05/22 01:41:10;;;;;;;19.42;12.75;;;;;;;16.91;83.80;99652.56;5025256;28;20116;-76
2023/05/22 01:43:36;;;;;;;18.10;11.38;;;;;;;16.86;84.19;99657.38;5025138;28;20033;-76
2023/05/22 01:46:01;;;;;;;19.67;12.18;;;;;;;16.91;83.68;99652.56;5024906;28;20495;-76
2023/05/22 01:48:27;;;;;;;19.33;12.90;;;;;;;16.91;84.12;99658.06;5024685;28;20117;-76
2023/05/22 01:50:53;;;;;;;22.53;12.20;;;;;;;16.85;84.13;99653.81;5024593;28;20030;-77
2023/05/22 01:53:28;;;;;;;19.90;12.77;;;;;;;16.88;84.02;99663.41;5024955;28;20270;-76
2023/05/22 01:56:04;;;;;;;21.67;12.50;;;;;;;16.87;84.02;99654.31;5024641;28;20036;-76
2023/05/22 01:58:48;;;;;;;17.63;11.63;;;;;;;16.88;83.82;99660.66;5024649;28;20041;-76
2023/05/22 02:01:16;;;;;;;18.10;11.43;;;;;;;16.80;84.21;99662.19;5025146;28;20112;-76
2023/05/22 02:03:43;;;;;;;17.35;11.35;;;;;;;16.79;84.14;99658.63;5024570;28;20274;-76
2023/05/22 02:06:12;;;;;;;20.67;12.95;;;;;;;16.78;84.16;99664.44;5024889;28;20116;-76
2023/05/22 02:08:39;;;;;;;23.17;13.35;;;;;;;16.77;84.42;99662.81;5024239;28;20061;-76
2023/05/22 02:11:06;;;;;;;24.73;14.38;;;;;;;16.75;84.60;99656.78;5024667;28;20033;-77
2023/05/22 02:13:32;;;;;;;22.58;14.20;;;;;;;16.74;84.57;99655.19;5024722;28;21222;-76
2023/05/22 02:15:58;;;;;;;23.17;13.80;;;;;;;16.72;84.91;99657.41;5023935;28;20061;-76
2023/05/22 02:18:30;;;;;;;19.90;13.00;;;;;;;16.71;84.94;99647.53;5024324;28;20048;-76
2023/05/22 02:20:58;;;;;;;22.30;14.65;;;;;;;16.69;84.81;99651.41;5024546;28;20061;-76
2023/05/22 02:23:25;;;;;;;22.77;14.48;;;;;;;16.73;84.78;99653.53;5024421;28;20037;-77
2023/05/22 02:25:50;;;;;;;19.58;12.90;;;;;;;16.71;84.54;99644.75;5023632;28;20094;-76
2023/05/22 02:28:16;;;;;;;26.13;14.23;;;;;;;16.68;84.74;99644.25;5024031;28;20041;-76
2023/05/22 02:30:41;;;;;;;24.92;13.93;;;;;;;16.66;84.81;99645.69;5025115;28;20120;-76
2023/05/22 02:33:08;;;;;;;23.00;14.23;;;;;;;16.63;84.72;99646.31;5024375;28;20230;-77
2023/05/22 02:35:33;;;;;;;19.38;12.93;;;;;;;16.65;85.18;99644.88;5024389;28;20259;-76
2023/05/22 02:37:58;;;;;;;27.15;14.65;;;;;;;16.66;85.07;99640.19;5023882;28;20072;-77
2023/05/22 02:40:24;;;;;;;24.30;14.52;;;;;;;16.63;85.27;99638.88;5024136;28;20394;-77
2023/05/22 02:42:49;;;;;;;23.30;13.40;;;;;;;16.66;85.17;99637.44;5024095;28;20099;-76
2023/05/22 02:45:15;;;;;;;24.27;14.70;;;;;;;16.61;85.37;99635.63;5024073;28;20660;-76
2023/05/22 02:47:41;;;;;;;26.77;15.23;;;;;;;16.62;85.61;99631.72;5023893;28;20263;-76
2023/05/22 02:50:06;;;;;;;23.97;14.87;;;;;;;16.61;85.25;99627.38;5023616;28;20033;-76
2023/05/22 02:52:31;;;;;;;25.58;13.70;;;;;;;16.63;85.40;99629.81;5024081;28;20255;-77
2023/05/22 02:54:57;;;;;;;22.00;14.53;;;;;;;16.62;85.60;99617.97;5023802;28;20029;-77
2023/05/22 02:57:22;;;;;;;25.33;15.73;;;;;;;16.52;85.50;99612.69;5024182;28;20254;-77
2023/05/22 02:59:47;;;;;;;24.97;14.53;;;;;;;16.52;85.66;99607.19;5024046;28;20282;-76
2023/05/22 03:02:14;;;;;;;25.33;15.40;;;;;;;16.57;85.87;99604.34;5023647;28;20271;-76
2023/05/22 03:04:39;;;;;;;27.88;15.07;;;;;;;16.55;86.04;99603.84;5023619;28;20369;-76
2023/05/22 03:07:06;;;;;;;23.45;14.18;;;;;;;16.57;86.04;99605.16;5023502;28;20465;-76
2023/05/22 03:09:31;;;;;;;31.58;16.83;;;;;;;16.63;85.75;99602.28;5023081;28;20033;-76
2023/05/22 03:11:56;;;;;;;26.85;15.07;;;;;;;16.65;85.75;99605.53;5023105;28;20029;-75
2023/05/22 03:14:21;;;;;;;28.20;15.90;;;;;;;16.73;86.03;99613.06;5023705;28;20029;-76
2023/05/22 03:16:47;;;;;;;25.50;16.50;;;;;;;16.77;85.89;99602.25;5023192;28;20270;-75
2023/05/22 03:19:13;;;;;;;24.77;14.17;;;;;;;16.80;86.09;99607.94;5023126;28;20306;-76
2023/05/22 03:21:40;;;;;;;24.20;15.43;;;;;;;16.84;85.82;99608.13;5023064;28;20732;-76
2023/05/22 03:24:06;;;;;;;25.77;15.35;;;;;;;16.82;86.10;99606.81;5022917;28;20713;-76
2023/05/22 03:26:31;;;;;;;27.10;15.20;;;;;;;16.79;85.83;99606.31;5023018;28;20033;-76
2023/05/22 03:28:56;;;;;;;26.48;16.73;;;;;;;16.74;85.92;99611.94;5023045;28;20037;-76
2023/05/22 03:31:26;;;;;;;26.83;15.70;;;;;;;16.69;86.20;99601.03;5022987;28;20029;-76
2023/05/22 03:33:52;;;;;;;28.33;17.35;;;;;;;16.67;86.62;99597.78;5023002;28;20032;-76
2023/05/22 03:36:20;;;;;;;32.17;17.53;;;;;;;16.64;86.40;99607.47;5022915;28;20030;-76
2023/05/22 03:38:45;;;;;;;35.53;19.08;;;;;;;16.63;86.49;99594.03;5022185;28;20309;-76
2023/05/22 03:41:10;;;;;;;29.08;18.25;;;;;;;16.62;86.39;99595.16;5022914;28;20025;-76
2023/05/22 03:43:36;;;;;;;28.57;18.70;;;;;;;16.63;86.45;99603.09;5022764;28;20785;-75
2023/05/22 03:46:01;;;;;;;28.10;18.13;;;;;;;16.61;86.46;99605.34;5021449;28;20266;-76
2023/05/22 03:48:26;;;;;;;28.50;18.60;;;;;;;16.63;86.42;99608.63;5021385;28;20041;-76
2023/05/22 03:50:52;;;;;;;32.13;18.20;;;;;;;16.61;86.65;99597.09;5021189;28;20057;-76
2023/05/22 03:53:17;;;;;;;30.85;18.90;;;;;;;16.66;86.72;99596.97;5021638;28;20030;-76
2023/05/22 03:55:42;;;;;;;29.37;18.70;;;;;;;16.68;86.74;99594.72;5022285;28;20107;-76
2023/05/22 03:58:07;;;;;;;30.37;18.30;;;;;;;16.69;86.78;99607.38;5022368;28;20294;-76
2023/05/22 04:00:33;;;;;;;27.50;16.90;;;;;;;16.72;86.87;99602.38;5022801;28;20262;-76
2023/05/22 04:02:59;;;;;;;28.38;18.70;;;;;;;16.76;86.82;99597.88;5022483;28;20644;-76
2023/05/22 04:05:24;;;;;;;29.48;19.85;;;;;;;16.78;86.88;99604.69;5022640;28;20037;-76
2023/05/22 04:07:49;;;;;;;26.08;16.77;;;;;;;16.78;86.93;99604.69;5021989;28;20033;-76
2023/05/22 04:10:15;;;;;;;32.40;18.90;;;;;;;16.80;87.65;99601.63;5021923;28;20044;-76
2023/05/22 04:12:40;;;;;;;29.63;18.42;;;;;;;16.80;87.32;99605.19;5022526;28;20030;-76
2023/05/22 04:15:06;;;;;;;30.08;18.60;;;;;;;16.86;87.44;99599.56;5022298;28;20057;-76
2023/05/22 04:17:32;;;;;;;26.98;17.25;;;;;;;16.89;87.54;99602.50;5022692;28;20030;-75
2023/05/22 04:19:59;;;;;;;27.55;18.60;;;;;;;16.89;87.21;99599.75;5021683;28;21312;-76
2023/05/22 04:22:26;;;;;;;32.03;20.15;;;;;;;16.88;87.05;99600.88;5022611;28;20040;-76
2023/05/22 04:24:51;;;;;;;30.08;19.73;;;;;;;16.88;87.28;99611.09;5022294;28;20067;-76
2023/05/22 04:27:17;;;;;;;29.83;18.95;;;;;;;16.86;87.71;99594.84;5022776;28;20376;-75
2023/05/22 04:29:43;;;;;;;31.00;17.63;;;;;;;16.87;87.63;99603.94;5021769;28;20108;-75
2023/05/22 04:32:09;;;;;;;29.15;18.45;;;;;;;16.88;87.72;99600.88;5022279;28;20036;-75
2023/05/22 04:34:36;;;;;;;29.05;19.17;;;;;;;16.97;87.62;99602.88;5022465;28;20480;-75
2023/05/22 04:37:02;;;;;;;29.92;18.50;;;;;;;16.98;88.22;99602.59;5021830;28;20036;-75
2023/05/22 04:39:27;;;;;;;26.90;17.75;;;;;;;17.00;88.24;99599.50;5022235;28;20097;-75
2023/05/22 04:41:53;;;;;;;25.67;16.90;;;;;;;17.02;88.24;99597.25;5022378;28;20069;-75
2023/05/22 04:44:21;;;;;;;31.27;19.02;;;;;;;17.03;88.18;99594.19;5022384;28;20053;-77
2023/05/22 04:46:46;;;;;;;29.40;18.38;;;;;;;17.10;87.97;99604.78;5021988;28;20120;-76
2023/05/22 04:49:12;;;;;;;30.67;17.77;;;;;;;17.13;87.79;99608.84;5025382;28;20035;-76
2023/05/22 04:51:37;;;;;;;29.10;16.50;;;;;;;17.19;87.63;99601.31;5024854;28;20288;-76
2023/05/22 04:54:03;;;;;;;29.13;16.23;;;;;;;17.24;87.30;99603.91;5026083;28;20552;-76
2023/05/22 04:56:29;;;;;;;29.13;17.73;;;;;;;17.23;87.54;99596.78;5026523;28;20051;-76
2023/05/22 04:58:54;;;;;;;32.72;20.00;;;;;;;17.34;87.03;99603.66;5025349;28;20095;-76
2023/05/22 05:01:20;;;;;;;37.20;20.60;;;;;;;17.39;86.81;99591.69;5026178;28;20037;-76
2023/05/22 05:03:45;;;;;;;27.98;17.95;;;;;;;17.44;86.44;99591.56;5025588;28;20041;-76
2023/05/22 05:06:13;;;;;;;33.33;18.00;;;;;;;17.44;86.72;99590.75;5025842;28;20115;-77
2023/05/22 05:08:39;;;;;;;30.90;17.55;;;;;;;17.47;86.42;99593.69;5024875;28;20335;-76
2023/05/22 05:11:04;;;;;;;30.58;18.38;;;;;;;17.49;86.80;99593.38;5023863;28;20033;-75
2023/05/22 05:13:29;;;;;;;30.30;17.30;;;;;;;17.51;86.47;99585.63;5025957;28;20094;-76
2023/05/22 05:15:58;;;;;;;28.15;17.52;;;;;;;17.52;86.60;99591.91;5025276;28;20545;-76
2023/05/22 05:18:23;;;;;;;26.33;17.65;;;;;;;17.50;86.48;99589.47;5025200;28;20591;-76
2023/05/22 05:20:48;;;;;;;25.13;16.50;;;;;;;17.42;86.74;99581.97;5025510;28;20091;-75
2023/05/22 05:23:14;;;;;;;28.23;17.13;;;;;;;17.38;86.72;99582.63;5024071;28;20257;-76
2023/05/22 05:25:39;;;;;;;22.23;14.80;;;;;;;17.40;86.19;99585.06;5025296;28;20298;-75
2023/05/22 05:28:09;;;;;;;22.23;15.18;;;;;;;17.33;86.73;99585.50;5024903;28;20037;-76
2023/05/22 05:30:38;;;;;;;23.88;16.45;;;;;;;17.43;85.79;99587.16;5025861;28;20033;-77
2023/05/22 05:33:04;;;;;;;29.38;17.67;;;;;;;17.45;86.12;99592.38;5025626;28;20037;-76
2023/05/22 05:35:29;;;;;;;31.77;18.27;;;;;;;17.53;86.33;99599.88;5025648;28;20033;-76
2023/05/22 05:37:55;;;;;;;28.10;18.03;;;;;;;17.47;86.66;99601.16;5025158;28;20535;-75
2023/05/22 05:40:20;;;;;;;25.67;16.05;;;;;;;17.31;86.69;99607.03;5025288;28;20258;-76
2023/05/22 05:42:45;;;;;;;31.47;16.70;;;;;;;17.31;86.61;99609.00;5025469;28;20124;-76
2023/05/22 05:45:12;;;;;;;35.83;18.00;;;;;;;17.24;86.79;99615.75;5024600;28;20290;-76
2023/05/22 05:47:37;;;;;;;25.77;16.08;;;;;;;17.27;86.89;99617.88;5025468;28;20281;-76
2023/05/22 05:50:02;;;;;;;29.20;16.87;;;;;;;17.33;86.68;99626.03;5024444;28;20099;-77
2023/05/22 05:52:31;;;;;;;29.17;14.65;;;;;;;17.34;86.54;99628.47;5024979;28;20270;-76
2023/05/22 05:54:57;;;;;;;21.55;14.57;;;;;;;17.30;86.84;99630.22;5024550;28;20172;-77
2023/05/22 05:57:22;;;;;;;24.77;15.05;;;;;;;17.35;86.71;99632.03;5025038;28;20120;-75
2023/05/22 05:59:47;;;;;;;29.35;18.10;;;;;;;17.33;86.73;99632.31;5022865;28;20146;-78
2023/05/22 06:02:13;;;;;;;27.30;16.60;;;;;;;17.36;86.76;99634.47;5024584;28;20038;-78
2023/05/22 06:04:38;;;;;;;27.47;16.13;;;;;;;17.36;86.53;99634.47;5024386;28;20275;-76
2023/05/22 06:07:03;;;;;;;22.67;15.27;;;;;;;17.43;86.61;99627.72;5024255;28;20270;-76
2023/05/22 06:09:29;;;;;;;22.48;13.75;;;;;;;17.43;86.51;99631.25;5023577;28;20813;-78
2023/05/22 06:11:54;;;;;;;22.13;13.93;;;;;;;17.41;86.17;99624.44;5023906;28;20447;-78
2023/05/22 06:14:19;;;;;;;23.77;15.87;;;;;;;17.45;85.83;99639.22;5024116;28;20033;-76
2023/05/22 06:16:45;;;;;;;24.43;15.67;;;;;;;17.50;85.54;99633.56;5022295;28;20286;-76
2023/05/22 06:19:10;;;;;;;25.40;16.10;;;;;;;17.47;85.84;99639.72;5023324;28;20779;-76
2023/05/22 06:21:35;;;;;;;22.90;14.43;;;;;;;17.53;85.72;99638.47;5024110;28;20045;-76
2023/05/22 06:24:00;;;;;;;22.80;15.20;;;;;;;17.57;85.79;99639.47;5023753;28;20286;-75
2023/05/22 06:26:26;;;;;;;27.83;15.13;;;;;;;17.67;85.43;99635.63;5024233;28;20170;-75
2023/05/22 06:28:52;;;;;;;25.50;16.35;;;;;;;17.69;85.32;99635.31;5023351;28;20273;-76
2023/05/22 06:31:18;;;;;;;20.38;13.77;;;;;;;17.72;85.37;99640.19;5022189;28;20033;-75
2023/05/22 06:33:43;;;;;;;25.13;15.52;;;;;;;17.77;85.19;99637.28;5023486;28;20095;-75
2023/05/22 06:36:10;;;;;;;25.15;15.40;;;;;;;17.81;85.24;99638.28;5024105;28;20730;-75
2023/05/22 06:38:36;;;;;;;24.80;15.80;;;;;;;17.94;84.26;99642.06;5024086;28;20034;-75
2023/05/22 06:41:02;;;;;;;24.63;14.80;;;;;;;17.95;84.16;99640.13;5023748;28;20482;-75
2023/05/22 06:43:28;;;;;;;24.38;15.68;;;;;;;18.00;84.09;99642.72;5023780;28;20030;-75
2023/05/22 06:45:53;;;;;;;22.47;13.87;;;;;;;18.06;82.83;99638.69;5023564;28;20470;-75
2023/05/22 06:48:18;;;;;;;24.17;16.50;;;;;;;18.17;83.15;99641.22;5023386;28;20259;-75
2023/05/22 06:50:43;;;;;;;27.75;15.23;;;;;;;18.14;83.71;99644.59;5023490;28;20282;-75
2023/05/22 06:53:10;;;;;;;23.73;14.67;;;;;;;18.09;83.93;99649.13;5023890;28;20044;-75
2023/05/22 06:55:35;;;;;;;24.90;16.52;;;;;;;18.15;83.17;99646.19;5023985;28;20266;-74
2023/05/22 06:58:01;;;;;;;27.83;16.15;;;;;;;18.17;84.01;99646.72;5023141;28;20029;-76
2023/05/22 07:00:26;;;;;;;22.70;13.90;;;;;;;18.16;83.54;99647.84;5023974;28;20474;-75
2023/05/22 07:02:51;;;;;;;28.77;16.90;;;;;;;18.17;83.36;99646.72;5023471;28;20041;-75
2023/05/22 07:05:17;;;;;;;22.63;13.93;;;;;;;18.14;84.52;99650.09;5023928;28;20028;-75
2023/05/22 07:07:43;;;;;;;26.30;17.10;;;;;;;18.22;83.71;99651.28;5023820;28;20509;-76
2023/05/22 07:10:09;;;;;;;20.58;13.52;;;;;;;18.19;84.05;99648.03;5023410;28;20059;-75
2023/05/22 07:12:34;;;;;;;26.75;16.02;;;;;;;18.27;83.42;99648.38;5023983;28;20025;-76
2023/05/22 07:15:00;;;;;;;25.17;16.02;;;;;;;18.28;84.83;99648.06;5023348;28;20050;-76
2023/05/22 07:17:26;;;;;;;22.45;14.95;;;;;;;18.24;85.04;99643.50;5023327;28;20037;-76
2023/05/22 07:19:51;;;;;;;23.58;14.20;;;;;;;18.25;85.10;99650.63;5021653;28;20053;-75
2023/05/22 07:22:16;;;;;;;27.67;17.60;;;;;;;18.33;85.37;99647.09;5023684;28;20033;-77
2023/05/22 07:24:42;;;;;;;27.33;14.83;;;;;;;18.39;84.56;99656.03;5023527;28;20041;-74
2023/05/22 07:27:08;;;;;;;24.88;14.43;;;;;;;18.41;83.95;99653.78;5023319;28;20259;-75
2023/05/22 07:29:33;;;;;;;24.30;16.15;;;;;;;18.51;83.39;99653.47;5022737;28;20127;-78
2023/05/22 07:31:58;;;;;;;21.85;14.13;;;;;;;18.54;83.43;99650.09;5021547;28;20135;-75
2023/05/22 07:34:30;;;;;;;23.20;15.63;;;;;;;18.57;83.25;99650.56;5023448;28;20501;-76
2023/05/22 07:36:56;;;;;;;23.75;15.13;;;;;;;18.61;82.41;99646.03;5023009;28;20671;-77
2023/05/22 07:39:21;;;;;;;26.58;16.27;;;;;;;18.63;83.14;99652.06;5023019;28;20067;-76
2023/05/22 07:41:50;;;;;;;24.10;14.60;;;;;;;18.63;82.33;99655.59;5023019;28;20539;-77
2023/05/22 07:44:16;;;;;;;26.35;15.25;;;;;;;18.65;83.76;99658.06;5023360;28;20273;-77
2023/05/22 07:46:41;;;;;;;21.50;14.82;;;;;;;18.67;82.93;99653.81;5023421;28;20026;-75
2023/05/22 07:49:07;;;;;;;21.55;14.45;;;;;;;18.68;83.20;99654.66;5022693;28;20056;-77
2023/05/22 07:51:32;;;;;;;22.23;13.87;;;;;;;18.75;82.21;99652.19;5023220;28;20497;-76
2023/05/22 07:53:57;;;;;;;24.50;16.02;;;;;;;18.81;83.12;99654.81;5023176;28;20262;-76
2023/05/22 07:56:24;;;;;;;22.00;15.37;;;;;;;18.88;81.62;99650.44;5023069;28;20099;-76
2023/05/22 07:58:50;;;;;;;26.13;15.75;;;;;;;18.87;82.96;99654.34;5022500;28;20268;-75
2023/05/22 08:01:15;;;;;;;24.77;15.68;;;;;;;18.94;82.64;99664.91;5022754;28;20394;-76
2023/05/22 08:03:41;;;;;;;26.38;15.63;;;;;;;18.95;82.71;99658.25;5022900;28;20280;-75
2023/05/22 08:06:06;;;;;;;31.60;17.80;;;;;;;18.97;82.78;99664.25;5023003;28;20084;-76
2023/05/22 08:08:32;;;;;;;26.63;17.90;;;;;;;19.06;82.88;99667.00;5020825;28;20535;-76
2023/05/22 08:10:58;;;;;;;23.23;15.52;;;;;;;19.15;81.95;99664.28;5022514;28;20108;-76
2023/05/22 08:13:23;;;;;;;26.80;16.55;;;;;;;19.19;81.85;99676.31;5022804;28;20029;-76
2023/05/22 08:15:48;;;;;;;28.85;17.98;;;;;;;19.22;81.57;99672.09;5022309;28;20126;-76
2023/05/22 08:18:14;;;;;;;22.47;14.37;;;;;;;19.24;81.58;99678.91;5022512;28;20041;-76
2023/05/22 08:20:39;;;;;;;24.23;14.10;;;;;;;19.26;81.19;99667.53;5023050;28;20025;-75
2023/05/22 08:23:04;;;;;;;23.43;15.10;;;;;;;19.31;81.31;99672.06;5022594;28;20033;-76
2023/05/22 08:25:30;;;;;;;27.20;16.52;;;;;;;19.33;80.93;99667.03;5022705;28;20322;-75
2023/05/22 08:27:55;;;;;;;22.30;14.50;;;;;;;19.36;80.43;99666.38;5021957;28;20030;-75
2023/05/22 08:30:20;;;;;;;22.50;14.53;;;;;;;19.35;81.09;99671.09;5022597;28;20441;-76
2023/05/22 08:32:45;;;;;;;22.20;13.33;;;;;;;19.42;80.21;99678.09;5022653;28;20095;-76
2023/05/22 08:35:11;;;;;;;29.20;15.13;;;;;;;19.49;80.59;99675.63;5022482;28;20255;-76
2023/05/22 08:37:36;;;;;;;21.83;15.07;;;;;;;19.47;81.04;99681.50;5022519;28;21056;-76
2023/05/22 08:40:01;;;;;;;27.30;16.07;;;;;;;19.52;80.21;99677.75;5020156;28;20265;-76
2023/05/22 08:42:26;;;;;;;25.95;15.55;;;;;;;19.58;79.89;99672.84;5022333;28;20263;-75
2023/05/22 08:44:54;;;;;;;19.13;13.50;;;;;;;19.65;79.58;99669.59;5021682;28;20033;-75
2023/05/22 08:47:22;;;;;;;24.67;16.05;;;;;;;19.68;79.96;99675.28;5022737;28;20262;-76
2023/05/22 08:49:50;;;;;;;22.42;14.52;;;;;;;19.79;79.69;99669.41;5021776;28;20035;-75
2023/05/22 08:52:20;;;;;;;30.92;16.10;;;;;;;19.92;79.46;99668.38;5022297;28;20025;-76
2023/05/22 08:54:51;;;;;;;26.52;17.25;;;;;;;20.02;78.88;99671.91;5021883;28;20057;-76
2023/05/22 08:57:18;;;;;;;25.65;15.55;;;;;;;20.04;78.78;99669.63;5022478;28;20036;-76
2023/05/22 08:59:44;;;;;;;24.35;15.55;;;;;;;20.16;79.89;99663.41;5021715;28;20044;-76
2023/05/22 09:02:11;;;;;;;29.15;15.85;;;;;;;20.21;78.68;99665.19;5022000;28;20423;-77
2023/05/22 09:04:36;;;;;;;29.35;16.45;;;;;;;20.37;78.90;99669.03;5021972;28;20025;-76
2023/05/22 09:07:04;;;;;;;31.20;16.95;;;;;;;20.40;78.17;99665.56;5022134;28;20034;-77
2023/05/22 09:09:31;;;;;;;24.33;16.83;;;;;;;20.53;77.71;99660.94;5022010;28;20513;-77
2023/05/22 09:11:57;;;;;;;25.13;16.38;;;;;;;20.61;77.82;99663.97;5022223;28;20108;-77
2023/05/22 09:14:23;;;;;;;27.52;17.77;;;;;;;20.69;77.08;99662.31;5022334;28;20042;-77
2023/05/22 09:16:51;;;;;;;28.05;16.48;;;;;;;20.79;77.64;99664.69;5021451;28;20085;-77
2023/05/22 09:19:17;;;;;;;30.25;19.00;;;;;;;21.01;77.80;99664.72;5015734;28;20060;-75
2023/05/22 09:21:46;;;;;;;28.02;18.13;;;;;;;21.14;77.16;99658.09;4957235;28;20520;-77
2023/05/22 09:24:11;;;;;;;35.88;21.67;;;;;;;21.28;76.74;99662.53;4946020;28;20429;-77
2023/05/22 09:26:37;;;;;;;37.35;22.23;;;;;;;21.35;76.15;99651.72;4943499;28;20039;-76
2023/05/22 09:29:05;;;;;;;32.67;22.40;;;;;;;21.40;76.13;99665.34;4938692;28;20039;-76
2023/05/22 09:31:30;;;;;;;46.70;26.95;;;;;;;21.51;76.82;99665.75;4944155;28;20039;-77
2023/05/22 09:33:56;;;;;;;47.30;29.92;;;;;;;21.52;77.20;99664.56;4944108;28;21220;-77
2023/05/22 09:36:30;;;;;;;48.13;30.40;;;;;;;21.53;76.58;99670.94;4947477;28;20038;-76
2023/05/22 09:38:56;;;;;;;47.03;30.60;;;;;;;21.51;76.84;99665.75;4944778;28;20062;-76
2023/05/22 09:41:22;;;;;;;54.58;33.13;;;;;;;21.48;76.56;99671.94;4944073;29;20035;-76
2023/05/22 09:43:50;;;;;;;53.35;35.42;;;;;;;21.53;77.17;99663.44;4947318;29;20035;-77
2023/05/22 09:46:16;;;;;;;62.75;35.70;;;;;;;21.61;76.05;99672.00;4945819;28;20028;-77
2023/05/22 09:48:41;;;;;;;55.10;38.15;;;;;;;21.70;76.75;99672.72;4946621;28;20046;-77
2023/05/22 09:51:09;;;;;;;69.97;39.17;;;;;;;21.80;75.89;99677.03;4947342;28;20114;-76
2023/05/22 09:53:35;;;;;;;61.00;39.67;;;;;;;21.89;75.72;99671.38;4947454;28;20377;-78
2023/05/22 09:56:06;;;;;;;61.78;38.30;;;;;;;21.77;75.58;99677.69;4947591;28;20063;-77
2023/05/22 09:58:34;;;;;;;56.70;37.33;;;;;;;21.67;75.59;99673.41;4947212;28;20039;-77
2023/05/22 10:01:00;;;;;;;58.25;40.25;;;;;;;21.63;75.82;99675.22;4947314;28;20027;-77
2023/05/22 10:03:26;;;;;;;63.25;41.22;;;;;;;21.72;75.65;99675.97;4947432;28;20035;-76
2023/05/22 10:05:54;;;;;;;58.92;38.55;;;;;;;21.77;75.63;99667.41;4946653;28;20035;-78
2023/05/22 10:08:23;;;;;;;63.50;39.10;;;;;;;21.73;75.90;99666.47;4946625;28;20031;-76
2023/05/22 10:10:53;;;;;;;63.38;40.13;;;;;;;21.85;75.66;99679.59;4946803;28;20110;-77
2023/05/22 10:13:20;;;;;;;62.15;37.40;;;;;;;21.89;74.99;99677.75;4947205;28;20055;-77
2023/05/22 10:15:50;;;;;;;69.10;42.58;;;;;;;22.03;75.08;99680.19;4946369;29;20079;-77
2023/05/22 10:18:16;;;;;;;61.58;40.17;;;;;;;22.13;74.41;99686.47;4946159;28;20694;-76
2023/05/22 10:20:42;;;;;;;64.18;42.85;;;;;;;22.21;73.95;99674.41;4946662;28;20035;-76
2023/05/22 10:23:08;;;;;;;49.47;35.83;;;;;;;22.30;73.63;99687.38;4946534;29;20046;-76
2023/05/22 10:25:37;;;;;;;53.92;37.90;;;;;;;22.33;73.00;99686.69;4946360;28;20031;-78
2023/05/22 10:28:02;;;;;;;61.80;40.50;;;;;;;22.35;72.75;99679.63;4945864;28;20039;-77
2023/05/22 10:30:41;;;;;;;69.00;44.53;;;;;;;22.35;72.37;99681.63;4947168;28;20090;-77
2023/05/22 10:33:20;;;;;;;62.70;38.97;;;;;;;22.37;72.54;99684.84;4946420;28;20035;-79
2023/05/22 10:35:54;;;;;;;66.95;40.88;;;;;;;22.35;72.70;99678.84;4946529;28;20485;-78
2023/05/22 10:38:35;;;;;;;66.65;44.05;;;;;;;22.43;72.14;99675.13;4946018;28;20102;-78
2023/05/22 10:41:02;;;;;;;60.75;40.10;;;;;;;22.41;72.08;99671.91;4946280;29;20035;-78
2023/05/22 10:43:30;;;;;;;71.43;44.88;;;;;;;22.45;71.88;99677.56;4946317;28;20437;-80
2023/05/22 10:46:03;;;;;;;58.17;40.20;;;;;;;22.58;71.34;99664.44;4946001;28;20031;-80
2023/05/22 10:48:35;;;;;;;65.35;39.72;;;;;;;22.64;70.54;99671.38;4945719;28;20031;-80
2023/05/22 10:51:00;;;;;;;68.03;42.23;;;;;;;22.56;71.02;99664.81;4946202;28;20496;-80
2023/05/22 10:53:27;;;;;;;67.82;42.22;;;;;;;22.57;71.32;99657.28;4946397;28;20031;-78
2023/05/22 10:55:57;;;;;;;56.83;40.08;;;;;;;22.66;71.25;99660.75;4945915;28;20039;-79
2023/05/22 10:58:27;;;;;;;59.47;39.95;;;;;;;22.62;70.47;99670.94;4945645;28;20063;-82
2023/05/22 11:01:18;;;;;;;72.57;38.97;;;;;;;22.70;69.63;99664.47;4945808;28;20035;-81
2023/05/22 11:04:11;;;;;;;56.65;38.58;;;;;;;22.70;69.52;99666.47;4946361;28;20051;-83
2023/05/22 11:06:44;;;;;;;53.72;37.08;;;;;;;22.66;69.96;99660.75;4946160;28;20046;-83
2023/05/22 11:09:28;;;;;;;70.57;36.42;;;;;;;22.65;70.25;99669.44;4945966;28;20497;-83
2023/05/22 11:12:15;;;;;;;;;;;;;;;22.73;69.01;99669.34;4946500;29;20050;-79
2023/05/22 11:14:40;;;;;;;59.67;34.33;;;;;;;22.83;69.44;99664.44;4945817;28;19953;-77
2023/05/22 11:17:05;;;;;;;52.85;36.47;;;;;;;22.73;69.37;99662.97;4945524;28;20042;-77